sensor_id;sensor_type;location;lat;lon;timestamp;temperature;humidity
52799;DHT22;38667;42.872;74.622;2023-02-28T00:00:00;0.40;80.60
52799;DHT22;38667;42.872;74.622;2023-02-28T00:02:26;0.40;81.20
52799;DHT22;38667;42.872;74.622;2023-02-28T00:04:52;0.30;81.00
52799;DHT22;38667;42.872;74.622;2023-02-28T00:07:19;0.40;81.80
52799;DHT22;38667;42.872;74.622;2023-02-28T00:09:45;0.30;81.70
52799;DHT22;38667;42.872;74.622;2023-02-28T00:12:12;0.40;81.30
52799;DHT22;38667;42.872;74.622;2023-02-28T00:14:40;0.50;80.50
52799;DHT22;38667;42.872;74.622;2023-02-28T00:17:06;0.50;79.40
52799;DHT22;38667;42.872;74.622;2023-02-28T00:19:32;0.50;79.80
52799;DHT22;38667;42.872;74.622;2023-02-28T00:21:59;0.40;80.00
52799;DHT22;38667;42.872;74.622;2023-02-28T00:24:25;0.40;80.00
52799;DHT22;38667;42.872;74.622;2023-02-28T00:26:51;0.60;80.00
52799;DHT22;38667;42.872;74.622;2023-02-28T00:29:18;0.60;78.70
52799;DHT22;38667;42.872;74.622;2023-02-28T00:31:46;0.50;79.50
52799;DHT22;38667;42.872;74.622;2023-02-28T00:34:12;0.40;80.70
52799;DHT22;38667;42.872;74.622;2023-02-28T00:36:38;0.30;80.80
52799;DHT22;38667;42.872;74.622;2023-02-28T00:39:04;0.20;81.30
52799;DHT22;38667;42.872;74.622;2023-02-28T00:41:31;0.20;81.40
52799;DHT22;38667;42.872;74.622;2023-02-28T00:43:57;0.30;81.10
52799;DHT22;38667;42.872;74.622;2023-02-28T00:46:23;0.50;80.10
52799;DHT22;38667;42.872;74.622;2023-02-28T00:48:51;0.60;78.70
52799;DHT22;38667;42.872;74.622;2023-02-28T00:51:18;0.50;77.70
52799;DHT22;38667;42.872;74.622;2023-02-28T00:53:44;0.50;78.20
52799;DHT22;38667;42.872;74.622;2023-02-28T00:56:10;0.60;77.50
52799;DHT22;38667;42.872;74.622;2023-02-28T00:58:36;0.60;76.90
52799;DHT22;38667;42.872;74.622;2023-02-28T01:01:03;0.50;77.80
52799;DHT22;38667;42.872;74.622;2023-02-28T01:03:29;0.40;79.60
52799;DHT22;38667;42.872;74.622;2023-02-28T01:05:57;0.30;79.70
52799;DHT22;38667;42.872;74.622;2023-02-28T01:08:24;0.20;79.70
52799;DHT22;38667;42.872;74.622;2023-02-28T01:10:50;0.20;80.40
52799;DHT22;38667;42.872;74.622;2023-02-28T01:13:16;0.20;80.20
52799;DHT22;38667;42.872;74.622;2023-02-28T01:15:46;0.20;81.00
52799;DHT22;38667;42.872;74.622;2023-02-28T01:18:15;0.10;81.10
52799;DHT22;38667;42.872;74.622;2023-02-28T01:20:41;0.10;81.10
52799;DHT22;38667;42.872;74.622;2023-02-28T01:23:09;0.20;81.30
52799;DHT22;38667;42.872;74.622;2023-02-28T01:25:35;0.20;80.90
52799;DHT22;38667;42.872;74.622;2023-02-28T01:28:02;0.20;81.30
52799;DHT22;38667;42.872;74.622;2023-02-28T01:30:28;0.20;81.30
52799;DHT22;38667;42.872;74.622;2023-02-28T01:32:54;0.30;80.70
52799;DHT22;38667;42.872;74.622;2023-02-28T01:35:21;0.30;80.70
52799;DHT22;38667;42.872;74.622;2023-02-28T01:37:47;0.40;80.30
52799;DHT22;38667;42.872;74.622;2023-02-28T01:40:15;0.50;79.60
52799;DHT22;38667;42.872;74.622;2023-02-28T01:42:41;0.40;79.00
52799;DHT22;38667;42.872;74.622;2023-02-28T01:45:20;0.30;80.30
52799;DHT22;38667;42.872;74.622;2023-02-28T01:47:49;0.30;80.80
52799;DHT22;38667;42.872;74.622;2023-02-28T01:50:19;0.30;80.70
52799;DHT22;38667;42.872;74.622;2023-02-28T01:52:47;0.20;80.90
52799;DHT22;38667;42.872;74.622;2023-02-28T01:55:17;0.20;81.00
52799;DHT22;38667;42.872;74.622;2023-02-28T01:57:48;0.30;81.10
52799;DHT22;38667;42.872;74.622;2023-02-28T02:00:17;0.30;81.50
52799;DHT22;38667;42.872;74.622;2023-02-28T02:02:47;0.30;81.30
52799;DHT22;38667;42.872;74.622;2023-02-28T02:05:16;0.30;81.90
52799;DHT22;38667;42.872;74.622;2023-02-28T02:07:45;0.40;81.70
52799;DHT22;38667;42.872;74.622;2023-02-28T02:10:15;0.50;81.50
52799;DHT22;38667;42.872;74.622;2023-02-28T02:12:55;0.50;80.70
52799;DHT22;38667;42.872;74.622;2023-02-28T02:15:26;0.60;80.50
52799;DHT22;38667;42.872;74.622;2023-02-28T02:17:58;0.60;80.50
52799;DHT22;38667;42.872;74.622;2023-02-28T02:23:40;0.90;79.30
52799;DHT22;38667;42.872;74.622;2023-02-28T02:29:42;0.90;78.90
52799;DHT22;38667;42.872;74.622;2023-02-28T02:35:15;1.30;75.80
52799;DHT22;38667;42.872;74.622;2023-02-28T02:37:47;1.20;76.60
52799;DHT22;38667;42.872;74.622;2023-02-28T02:40:18;1.20;76.60
52799;DHT22;38667;42.872;74.622;2023-02-28T02:42:49;1.20;76.50
52799;DHT22;38667;42.872;74.622;2023-02-28T02:45:21;1.30;77.20
52799;DHT22;38667;42.872;74.622;2023-02-28T02:47:49;1.30;76.50
52799;DHT22;38667;42.872;74.622;2023-02-28T02:50:21;1.30;76.60
52799;DHT22;38667;42.872;74.622;2023-02-28T02:52:52;1.40;76.70
52799;DHT22;38667;42.872;74.622;2023-02-28T02:55:21;1.50;75.80
52799;DHT22;38667;42.872;74.622;2023-02-28T02:57:51;1.50;75.60
52799;DHT22;38667;42.872;74.622;2023-02-28T03:00:21;1.70;76.10
52799;DHT22;38667;42.872;74.622;2023-02-28T03:02:49;1.80;74.00
52799;DHT22;38667;42.872;74.622;2023-02-28T03:05:23;1.90;72.90
52799;DHT22;38667;42.872;74.622;2023-02-28T03:07:49;2.00;73.50
52799;DHT22;38667;42.872;74.622;2023-02-28T03:10:34;2.10;72.00
52799;DHT22;38667;42.872;74.622;2023-02-28T03:13:37;2.20;71.00
52799;DHT22;38667;42.872;74.622;2023-02-28T03:16:29;2.30;71.90
52799;DHT22;38667;42.872;74.622;2023-02-28T03:19:17;2.40;72.10
52799;DHT22;38667;42.872;74.622;2023-02-28T03:22:01;2.50;72.10
52799;DHT22;38667;42.872;74.622;2023-02-28T03:24:33;2.70;72.10
52799;DHT22;38667;42.872;74.622;2023-02-28T03:27:06;2.80;72.70
52799;DHT22;38667;42.872;74.622;2023-02-28T03:29:36;3.00;72.60
52799;DHT22;38667;42.872;74.622;2023-02-28T03:32:07;3.10;73.40
52799;DHT22;38667;42.872;74.622;2023-02-28T03:34:39;3.30;73.20
52799;DHT22;38667;42.872;74.622;2023-02-28T03:37:11;3.40;73.00
52799;DHT22;38667;42.872;74.622;2023-02-28T03:39:42;3.60;73.10
52799;DHT22;38667;42.872;74.622;2023-02-28T03:42:11;3.80;72.70
52799;DHT22;38667;42.872;74.622;2023-02-28T03:44:42;3.90;72.10
52799;DHT22;38667;42.872;74.622;2023-02-28T03:47:10;4.10;72.30
52799;DHT22;38667;42.872;74.622;2023-02-28T03:49:42;4.30;72.40
52799;DHT22;38667;42.872;74.622;2023-02-28T03:52:12;4.40;71.60
52799;DHT22;38667;42.872;74.622;2023-02-28T03:54:42;4.50;70.60
52799;DHT22;38667;42.872;74.622;2023-02-28T03:57:15;4.70;68.60
52799;DHT22;38667;42.872;74.622;2023-02-28T03:59:46;4.90;68.20
52799;DHT22;38667;42.872;74.622;2023-02-28T04:02:13;5.00;68.40
52799;DHT22;38667;42.872;74.622;2023-02-28T04:04:40;5.10;66.60
52799;DHT22;38667;42.872;74.622;2023-02-28T04:07:08;5.20;66.20
52799;DHT22;38667;42.872;74.622;2023-02-28T04:09:36;5.30;65.90
52799;DHT22;38667;42.872;74.622;2023-02-28T04:12:03;5.40;65.40
52799;DHT22;38667;42.872;74.622;2023-02-28T04:14:29;5.50;65.80
52799;DHT22;38667;42.872;74.622;2023-02-28T04:16:55;5.70;65.00
52799;DHT22;38667;42.872;74.622;2023-02-28T04:19:22;5.80;62.70
52799;DHT22;38667;42.872;74.622;2023-02-28T04:21:49;6.00;59.60
52799;DHT22;38667;42.872;74.622;2023-02-28T04:24:17;6.10;61.00
52799;DHT22;38667;42.872;74.622;2023-02-28T04:26:47;6.20;60.60
52799;DHT22;38667;42.872;74.622;2023-02-28T04:29:17;6.30;60.90
52799;DHT22;38667;42.872;74.622;2023-02-28T04:31:44;6.50;59.80
52799;DHT22;38667;42.872;74.622;2023-02-28T04:34:10;6.60;57.50
52799;DHT22;38667;42.872;74.622;2023-02-28T04:36:37;6.70;55.40
52799;DHT22;38667;42.872;74.622;2023-02-28T04:39:03;6.90;55.80
52799;DHT22;38667;42.872;74.622;2023-02-28T04:41:30;7.00;55.60
52799;DHT22;38667;42.872;74.622;2023-02-28T04:43:57;7.20;56.60
52799;DHT22;38667;42.872;74.622;2023-02-28T04:46:24;7.30;56.10
52799;DHT22;38667;42.872;74.622;2023-02-28T04:48:50;7.40;57.70
52799;DHT22;38667;42.872;74.622;2023-02-28T04:51:18;7.50;58.10
52799;DHT22;38667;42.872;74.622;2023-02-28T04:53:44;7.60;56.30
52799;DHT22;38667;42.872;74.622;2023-02-28T04:56:12;7.70;56.40
52799;DHT22;38667;42.872;74.622;2023-02-28T04:58:39;7.90;56.60
52799;DHT22;38667;42.872;74.622;2023-02-28T05:01:18;8.00;56.70
52799;DHT22;38667;42.872;74.622;2023-02-28T05:03:45;8.10;55.00
52799;DHT22;38667;42.872;74.622;2023-02-28T05:06:12;8.30;54.10
52799;DHT22;38667;42.872;74.622;2023-02-28T05:08:39;8.40;52.20
52799;DHT22;38667;42.872;74.622;2023-02-28T05:11:07;8.50;50.60
52799;DHT22;38667;42.872;74.622;2023-02-28T05:13:38;8.60;50.90
52799;DHT22;38667;42.872;74.622;2023-02-28T05:16:06;8.70;52.50
52799;DHT22;38667;42.872;74.622;2023-02-28T05:18:32;8.80;51.50
52799;DHT22;38667;42.872;74.622;2023-02-28T05:21:00;8.90;51.00
52799;DHT22;38667;42.872;74.622;2023-02-28T05:23:26;9.10;52.50
52799;DHT22;38667;42.872;74.622;2023-02-28T05:25:52;9.30;50.50
52799;DHT22;38667;42.872;74.622;2023-02-28T05:28:19;9.40;50.10
52799;DHT22;38667;42.872;74.622;2023-02-28T05:30:45;9.40;49.80
52799;DHT22;38667;42.872;74.622;2023-02-28T05:33:13;9.40;48.50
52799;DHT22;38667;42.872;74.622;2023-02-28T05:35:40;9.50;48.90
52799;DHT22;38667;42.872;74.622;2023-02-28T05:38:07;9.60;49.40
52799;DHT22;38667;42.872;74.622;2023-02-28T05:40:33;9.70;49.00
52799;DHT22;38667;42.872;74.622;2023-02-28T05:42:59;9.90;50.40
52799;DHT22;38667;42.872;74.622;2023-02-28T05:45:26;10.00;47.70
52799;DHT22;38667;42.872;74.622;2023-02-28T05:47:54;10.10;46.10
52799;DHT22;38667;42.872;74.622;2023-02-28T05:50:22;10.20;46.60
52799;DHT22;38667;42.872;74.622;2023-02-28T05:52:49;10.20;47.40
52799;DHT22;38667;42.872;74.622;2023-02-28T05:55:16;10.30;48.90
52799;DHT22;38667;42.872;74.622;2023-02-28T05:57:42;10.50;48.60
52799;DHT22;38667;42.872;74.622;2023-02-28T06:00:10;10.60;48.70
52799;DHT22;38667;42.872;74.622;2023-02-28T06:02:38;10.70;48.10
52799;DHT22;38667;42.872;74.622;2023-02-28T06:05:05;10.70;46.90
52799;DHT22;38667;42.872;74.622;2023-02-28T06:07:32;10.80;47.20
52799;DHT22;38667;42.872;74.622;2023-02-28T06:09:59;10.90;46.90
52799;DHT22;38667;42.872;74.622;2023-02-28T06:12:25;11.00;47.80
52799;DHT22;38667;42.872;74.622;2023-02-28T06:14:51;11.20;46.60
52799;DHT22;38667;42.872;74.622;2023-02-28T06:17:18;11.20;46.60
52799;DHT22;38667;42.872;74.622;2023-02-28T06:19:44;11.40;45.30
52799;DHT22;38667;42.872;74.622;2023-02-28T06:22:10;11.80;42.90
52799;DHT22;38667;42.872;74.622;2023-02-28T06:24:40;12.60;41.80
52799;DHT22;38667;42.872;74.622;2023-02-28T06:27:07;13.30;40.70
52799;DHT22;38667;42.872;74.622;2023-02-28T06:29:34;13.80;39.40
52799;DHT22;38667;42.872;74.622;2023-02-28T06:32:00;14.40;40.40
52799;DHT22;38667;42.872;74.622;2023-02-28T06:34:27;14.60;39.40
52799;DHT22;38667;42.872;74.622;2023-02-28T06:36:53;14.40;40.40
52799;DHT22;38667;42.872;74.622;2023-02-28T06:39:19;14.20;41.20
52799;DHT22;38667;42.872;74.622;2023-02-28T06:41:47;14.20;40.40
52799;DHT22;38667;42.872;74.622;2023-02-28T06:44:14;14.30;40.70
52799;DHT22;38667;42.872;74.622;2023-02-28T06:46:42;14.20;42.20
52799;DHT22;38667;42.872;74.622;2023-02-28T06:49:09;13.90;43.00
52799;DHT22;38667;42.872;74.622;2023-02-28T06:51:35;13.70;43.90
52799;DHT22;38667;42.872;74.622;2023-02-28T06:54:02;13.60;43.30
52799;DHT22;38667;42.872;74.622;2023-02-28T06:56:29;13.70;42.00
52799;DHT22;38667;42.872;74.622;2023-02-28T06:58:57;13.80;41.90
52799;DHT22;38667;42.872;74.622;2023-02-28T07:01:23;14.10;41.90
52799;DHT22;38667;42.872;74.622;2023-02-28T07:03:50;14.40;42.10
52799;DHT22;38667;42.872;74.622;2023-02-28T07:06:16;14.60;41.40
52799;DHT22;38667;42.872;74.622;2023-02-28T07:08:42;14.40;40.70
52799;DHT22;38667;42.872;74.622;2023-02-28T07:11:08;14.50;40.50
52799;DHT22;38667;42.872;74.622;2023-02-28T07:13:35;14.80;39.90
52799;DHT22;38667;42.872;74.622;2023-02-28T07:16:05;14.70;41.00
52799;DHT22;38667;42.872;74.622;2023-02-28T07:18:32;14.40;42.00
52799;DHT22;38667;42.872;74.622;2023-02-28T07:21:01;14.30;40.70
52799;DHT22;38667;42.872;74.622;2023-02-28T07:23:27;14.50;40.90
52799;DHT22;38667;42.872;74.622;2023-02-28T07:25:53;14.60;41.30
52799;DHT22;38667;42.872;74.622;2023-02-28T07:28:19;14.80;41.40
52799;DHT22;38667;42.872;74.622;2023-02-28T07:30:46;14.80;40.60
52799;DHT22;38667;42.872;74.622;2023-02-28T07:33:14;14.60;40.70
52799;DHT22;38667;42.872;74.622;2023-02-28T07:35:41;14.70;39.70
52799;DHT22;38667;42.872;74.622;2023-02-28T07:38:07;14.90;38.80
52799;DHT22;38667;42.872;74.622;2023-02-28T07:40:34;15.20;38.20
52799;DHT22;38667;42.872;74.622;2023-02-28T07:43:00;15.40;38.60
52799;DHT22;38667;42.872;74.622;2023-02-28T07:45:27;15.50;37.60
52799;DHT22;38667;42.872;74.622;2023-02-28T07:47:53;15.60;36.90
52799;DHT22;38667;42.872;74.622;2023-02-28T07:50:22;15.70;35.70
52799;DHT22;38667;42.872;74.622;2023-02-28T07:52:48;15.70;37.60
52799;DHT22;38667;42.872;74.622;2023-02-28T07:55:14;15.80;36.20
52799;DHT22;38667;42.872;74.622;2023-02-28T07:57:41;15.50;36.80
52799;DHT22;38667;42.872;74.622;2023-02-28T08:00:09;15.30;36.80
52799;DHT22;38667;42.872;74.622;2023-02-28T08:02:36;15.50;36.20
52799;DHT22;38667;42.872;74.622;2023-02-28T08:05:03;15.60;33.40
52799;DHT22;38667;42.872;74.622;2023-02-28T08:07:31;16.80;31.60
52799;DHT22;38667;42.872;74.622;2023-02-28T08:09:57;17.80;27.00
52799;DHT22;38667;42.872;74.622;2023-02-28T08:12:24;18.60;26.10
52799;DHT22;38667;42.872;74.622;2023-02-28T08:14:50;18.40;26.10
52799;DHT22;38667;42.872;74.622;2023-02-28T08:17:16;17.90;26.10
52799;DHT22;38667;42.872;74.622;2023-02-28T08:19:45;18.00;23.40
52799;DHT22;38667;42.872;74.622;2023-02-28T08:22:12;18.40;22.40
52799;DHT22;38667;42.872;74.622;2023-02-28T08:24:41;18.40;20.10
52799;DHT22;38667;42.872;74.622;2023-02-28T08:27:07;18.50;21.90
52799;DHT22;38667;42.872;74.622;2023-02-28T08:29:33;19.10;20.60
52799;DHT22;38667;42.872;74.622;2023-02-28T08:32:00;19.90;21.40
52799;DHT22;38667;42.872;74.622;2023-02-28T08:34:26;20.60;18.20
52799;DHT22;38667;42.872;74.622;2023-02-28T08:36:52;20.10;19.80
52799;DHT22;38667;42.872;74.622;2023-02-28T08:39:19;19.90;19.40
52799;DHT22;38667;42.872;74.622;2023-02-28T08:41:46;20.30;19.00
52799;DHT22;38667;42.872;74.622;2023-02-28T08:44:13;20.60;16.60
52799;DHT22;38667;42.872;74.622;2023-02-28T08:46:39;21.20;16.80
52799;DHT22;38667;42.872;74.622;2023-02-28T08:49:05;21.30;18.30
52799;DHT22;38667;42.872;74.622;2023-02-28T08:51:32;22.10;16.60
52799;DHT22;38667;42.872;74.622;2023-02-28T08:54:00;21.30;18.10
52799;DHT22;38667;42.872;74.622;2023-02-28T08:56:27;20.30;19.80
52799;DHT22;38667;42.872;74.622;2023-02-28T08:58:56;19.30;19.50
52799;DHT22;38667;42.872;74.622;2023-02-28T09:01:24;18.70;20.00
52799;DHT22;38667;42.872;74.622;2023-02-28T09:03:51;18.30;19.40
52799;DHT22;38667;42.872;74.622;2023-02-28T09:06:19;18.10;20.00
52799;DHT22;38667;42.872;74.622;2023-02-28T09:08:46;18.90;18.40
52799;DHT22;38667;42.872;74.622;2023-02-28T09:11:12;19.90;17.00
52799;DHT22;38667;42.872;74.622;2023-02-28T09:13:39;19.70;18.20
52799;DHT22;38667;42.872;74.622;2023-02-28T09:16:10;19.60;19.30
52799;DHT22;38667;42.872;74.622;2023-02-28T09:18:36;20.10;19.40
52799;DHT22;38667;42.872;74.622;2023-02-28T09:21:04;20.50;19.30
52799;DHT22;38667;42.872;74.622;2023-02-28T09:23:31;21.00;16.80
52799;DHT22;38667;42.872;74.622;2023-02-28T09:25:57;21.40;17.70
52799;DHT22;38667;42.872;74.622;2023-02-28T09:28:23;20.60;17.90
52799;DHT22;38667;42.872;74.622;2023-02-28T09:30:51;19.90;20.80
52799;DHT22;38667;42.872;74.622;2023-02-28T09:33:21;19.60;22.90
52799;DHT22;38667;42.872;74.622;2023-02-28T09:35:47;19.40;20.30
52799;DHT22;38667;42.872;74.622;2023-02-28T09:38:14;19.20;20.00
52799;DHT22;38667;42.872;74.622;2023-02-28T09:40:47;18.90;20.60
52799;DHT22;38667;42.872;74.622;2023-02-28T09:43:15;19.40;19.60
52799;DHT22;38667;42.872;74.622;2023-02-28T09:45:46;19.30;19.60
52799;DHT22;38667;42.872;74.622;2023-02-28T09:48:17;18.80;19.50
52799;DHT22;38667;42.872;74.622;2023-02-28T09:50:49;18.50;20.50
52799;DHT22;38667;42.872;74.622;2023-02-28T09:53:21;18.20;20.70
52799;DHT22;38667;42.872;74.622;2023-02-28T09:55:51;18.10;22.40
52799;DHT22;38667;42.872;74.622;2023-02-28T09:58:24;18.20;22.10
52799;DHT22;38667;42.872;74.622;2023-02-28T10:00:58;18.20;23.10
52799;DHT22;38667;42.872;74.622;2023-02-28T10:03:29;18.30;22.20
52799;DHT22;38667;42.872;74.622;2023-02-28T10:06:05;17.90;23.50
52799;DHT22;38667;42.872;74.622;2023-02-28T10:08:37;18.50;23.80
52799;DHT22;38667;42.872;74.622;2023-02-28T10:11:07;19.00;23.10
52799;DHT22;38667;42.872;74.622;2023-02-28T10:13:37;19.50;21.00
52799;DHT22;38667;42.872;74.622;2023-02-28T10:16:08;19.40;20.90
52799;DHT22;38667;42.872;74.622;2023-02-28T10:18:42;19.20;21.50
52799;DHT22;38667;42.872;74.622;2023-02-28T10:21:17;19.70;20.60
52799;DHT22;38667;42.872;74.622;2023-02-28T10:23:47;18.70;22.60
52799;DHT22;38667;42.872;74.622;2023-02-28T10:26:16;18.00;23.70
52799;DHT22;38667;42.872;74.622;2023-02-28T10:28:43;18.40;22.60
52799;DHT22;38667;42.872;74.622;2023-02-28T10:31:11;18.70;22.80
52799;DHT22;38667;42.872;74.622;2023-02-28T10:33:40;18.70;23.20
52799;DHT22;38667;42.872;74.622;2023-02-28T10:36:14;19.30;22.30
52799;DHT22;38667;42.872;74.622;2023-02-28T10:38:41;19.70;22.30
52799;DHT22;38667;42.872;74.622;2023-02-28T10:41:09;20.30;22.80
52799;DHT22;38667;42.872;74.622;2023-02-28T10:43:37;20.50;21.80
52799;DHT22;38667;42.872;74.622;2023-02-28T10:46:11;19.90;22.90
52799;DHT22;38667;42.872;74.622;2023-02-28T10:48:39;18.90;23.60
52799;DHT22;38667;42.872;74.622;2023-02-28T10:51:08;18.10;24.10
52799;DHT22;38667;42.872;74.622;2023-02-28T10:53:39;18.00;25.10
52799;DHT22;38667;42.872;74.622;2023-02-28T10:56:16;18.00;25.00
52799;DHT22;38667;42.872;74.622;2023-02-28T10:58:49;17.60;25.00
52799;DHT22;38667;42.872;74.622;2023-02-28T11:01:18;17.90;23.80
52799;DHT22;38667;42.872;74.622;2023-02-28T11:03:44;17.50;24.40
52799;DHT22;38667;42.872;74.622;2023-02-28T11:06:16;17.80;24.50
52799;DHT22;38667;42.872;74.622;2023-02-28T11:08:50;18.30;25.60
52799;DHT22;38667;42.872;74.622;2023-02-28T11:11:18;18.30;24.20
52799;DHT22;38667;42.872;74.622;2023-02-28T11:13:46;17.80;25.60
52799;DHT22;38667;42.872;74.622;2023-02-28T11:16:14;17.70;26.30
52799;DHT22;38667;42.872;74.622;2023-02-28T11:18:43;18.70;23.80
52799;DHT22;38667;42.872;74.622;2023-02-28T11:21:18;19.60;22.20
52799;DHT22;38667;42.872;74.622;2023-02-28T11:23:47;19.50;22.60
52799;DHT22;38667;42.872;74.622;2023-02-28T11:26:15;18.80;23.20
52799;DHT22;38667;42.872;74.622;2023-02-28T11:28:42;18.00;24.80
52799;DHT22;38667;42.872;74.622;2023-02-28T11:31:18;17.20;26.30
52799;DHT22;38667;42.872;74.622;2023-02-28T11:33:46;16.90;26.00
52799;DHT22;38667;42.872;74.622;2023-02-28T11:36:15;16.60;26.90
52799;DHT22;38667;42.872;74.622;2023-02-28T11:38:42;16.90;26.70
52799;DHT22;38667;42.872;74.622;2023-02-28T11:46:49;16.70;26.90
52799;DHT22;38667;42.872;74.622;2023-02-28T11:49:31;15.60;28.40
52799;DHT22;38667;42.872;74.622;2023-02-28T11:52:01;15.00;29.60
52799;DHT22;38667;42.872;74.622;2023-02-28T11:54:36;14.70;28.80
52799;DHT22;38667;42.872;74.622;2023-02-28T11:57:21;14.50;30.10
52799;DHT22;38667;42.872;74.622;2023-02-28T12:00:03;14.20;30.70
52799;DHT22;38667;42.872;74.622;2023-02-28T12:02:39;14.00;33.30
52799;DHT22;38667;42.872;74.622;2023-02-28T12:05:24;13.70;33.30
52799;DHT22;38667;42.872;74.622;2023-02-28T12:08:07;13.50;33.50
52799;DHT22;38667;42.872;74.622;2023-02-28T12:10:39;13.40;33.40
52799;DHT22;38667;42.872;74.622;2023-02-28T12:13:20;13.30;34.10
52799;DHT22;38667;42.872;74.622;2023-02-28T12:16:04;13.10;34.40
52799;DHT22;38667;42.872;74.622;2023-02-28T12:18:55;12.90;35.00
52799;DHT22;38667;42.872;74.622;2023-02-28T12:21:31;12.80;35.40
52799;DHT22;38667;42.872;74.622;2023-02-28T12:26:59;12.70;34.40
52799;DHT22;38667;42.872;74.622;2023-02-28T12:29:30;12.60;34.10
52799;DHT22;38667;42.872;74.622;2023-02-28T12:32:01;12.50;35.10
52799;DHT22;38667;42.872;74.622;2023-02-28T12:34:35;12.50;34.90
52799;DHT22;38667;42.872;74.622;2023-02-28T12:37:07;12.40;34.80
52799;DHT22;38667;42.872;74.622;2023-02-28T12:39:39;12.40;35.50
52799;DHT22;38667;42.872;74.622;2023-02-28T12:42:11;12.30;35.40
52799;DHT22;38667;42.872;74.622;2023-02-28T12:44:45;12.20;36.50
52799;DHT22;38667;42.872;74.622;2023-02-28T12:47:14;12.10;36.00
52799;DHT22;38667;42.872;74.622;2023-02-28T12:49:46;12.00;38.20
52799;DHT22;38667;42.872;74.622;2023-02-28T12:52:17;11.90;38.10
52799;DHT22;38667;42.872;74.622;2023-02-28T12:54:50;11.90;37.70
52799;DHT22;38667;42.872;74.622;2023-02-28T12:57:22;11.80;37.80
52799;DHT22;38667;42.872;74.622;2023-02-28T12:59:55;11.80;38.70
52799;DHT22;38667;42.872;74.622;2023-02-28T13:02:42;11.60;39.40
52799;DHT22;38667;42.872;74.622;2023-02-28T13:05:25;11.40;39.70
52799;DHT22;38667;42.872;74.622;2023-02-28T13:08:21;11.30;40.60
52799;DHT22;38667;42.872;74.622;2023-02-28T13:10:51;11.10;41.20
52799;DHT22;38667;42.872;74.622;2023-02-28T13:13:19;11.00;41.20
52799;DHT22;38667;42.872;74.622;2023-02-28T13:16:03;10.90;41.80
52799;DHT22;38667;42.872;74.622;2023-02-28T13:18:33;10.90;41.80
52799;DHT22;38667;42.872;74.622;2023-02-28T13:21:00;10.80;42.50
52799;DHT22;38667;42.872;74.622;2023-02-28T13:26:22;10.70;42.90
52799;DHT22;38667;42.872;74.622;2023-02-28T13:29:21;10.70;42.30
52799;DHT22;38667;42.872;74.622;2023-02-28T13:35:36;10.30;44.10
52799;DHT22;38667;42.872;74.622;2023-02-28T13:38:23;10.10;44.40
52799;DHT22;38667;42.872;74.622;2023-02-28T13:40:49;10.00;45.10
52799;DHT22;38667;42.872;74.622;2023-02-28T13:43:17;9.90;43.00
52799;DHT22;38667;42.872;74.622;2023-02-28T13:46:05;10.10;43.40
52799;DHT22;38667;42.872;74.622;2023-02-28T13:48:34;10.30;44.30
52799;DHT22;38667;42.872;74.622;2023-02-28T13:51:38;10.30;44.80
52799;DHT22;38667;42.872;74.622;2023-02-28T13:54:17;10.00;45.80
52799;DHT22;38667;42.872;74.622;2023-02-28T13:56:50;9.80;45.50
52799;DHT22;38667;42.872;74.622;2023-02-28T13:59:26;10.00;43.60
52799;DHT22;38667;42.872;74.622;2023-02-28T14:02:11;9.90;44.60
52799;DHT22;38667;42.872;74.622;2023-02-28T14:05:00;9.90;44.80
52799;DHT22;38667;42.872;74.622;2023-02-28T14:07:30;9.90;45.30
52799;DHT22;38667;42.872;74.622;2023-02-28T14:10:02;9.70;45.50
52799;DHT22;38667;42.872;74.622;2023-02-28T14:13:01;9.60;46.70
52799;DHT22;38667;42.872;74.622;2023-02-28T14:15:46;9.40;46.60
52799;DHT22;38667;42.872;74.622;2023-02-28T14:18:26;9.20;47.90
52799;DHT22;38667;42.872;74.622;2023-02-28T14:21:01;9.00;47.90
52799;DHT22;38667;42.872;74.622;2023-02-28T14:23:41;9.00;49.20
52799;DHT22;38667;42.872;74.622;2023-02-28T14:26:18;9.00;49.20
52799;DHT22;38667;42.872;74.622;2023-02-28T14:28:55;9.00;49.60
52799;DHT22;38667;42.872;74.622;2023-02-28T14:31:32;9.00;50.10
52799;DHT22;38667;42.872;74.622;2023-02-28T14:34:22;9.00;48.80
52799;DHT22;38667;42.872;74.622;2023-02-28T14:36:53;9.10;47.20
52799;DHT22;38667;42.872;74.622;2023-02-28T14:39:22;9.00;49.30
52799;DHT22;38667;42.872;74.622;2023-02-28T14:41:50;8.70;50.70
52799;DHT22;38667;42.872;74.622;2023-02-28T14:44:18;8.50;50.60
52799;DHT22;38667;42.872;74.622;2023-02-28T14:46:46;8.40;50.50
52799;DHT22;38667;42.872;74.622;2023-02-28T14:49:18;8.40;50.20
52799;DHT22;38667;42.872;74.622;2023-02-28T14:51:44;8.60;47.60
52799;DHT22;38667;42.872;74.622;2023-02-28T14:54:14;8.70;47.20
52799;DHT22;38667;42.872;74.622;2023-02-28T14:56:43;8.80;47.00
52799;DHT22;38667;42.872;74.622;2023-02-28T14:59:26;8.60;47.80
52799;DHT22;38667;42.872;74.622;2023-02-28T15:01:53;8.50;48.10
52799;DHT22;38667;42.872;74.622;2023-02-28T15:04:33;8.60;46.30
52799;DHT22;38667;42.872;74.622;2023-02-28T15:07:09;8.60;46.80
52799;DHT22;38667;42.872;74.622;2023-02-28T15:09:35;8.50;48.10
52799;DHT22;38667;42.872;74.622;2023-02-28T15:12:04;8.30;49.20
52799;DHT22;38667;42.872;74.622;2023-02-28T15:14:30;8.00;49.90
52799;DHT22;38667;42.872;74.622;2023-02-28T15:16:59;7.90;50.10
52799;DHT22;38667;42.872;74.622;2023-02-28T15:19:29;7.70;50.70
52799;DHT22;38667;42.872;74.622;2023-02-28T15:21:59;7.60;51.70
52799;DHT22;38667;42.872;74.622;2023-02-28T15:24:33;7.50;51.80
52799;DHT22;38667;42.872;74.622;2023-02-28T15:27:06;7.40;51.70
52799;DHT22;38667;42.872;74.622;2023-02-28T15:29:43;7.30;52.70
52799;DHT22;38667;42.872;74.622;2023-02-28T15:32:24;7.20;52.30
52799;DHT22;38667;42.872;74.622;2023-02-28T15:34:50;7.20;52.70
52799;DHT22;38667;42.872;74.622;2023-02-28T15:37:38;7.10;53.00
52799;DHT22;38667;42.872;74.622;2023-02-28T15:40:13;7.10;53.00
52799;DHT22;38667;42.872;74.622;2023-02-28T15:42:42;7.00;53.80
52799;DHT22;38667;42.872;74.622;2023-02-28T15:45:27;6.90;53.60
52799;DHT22;38667;42.872;74.622;2023-02-28T15:47:53;6.80;54.20
52799;DHT22;38667;42.872;74.622;2023-02-28T15:50:20;6.70;53.90
52799;DHT22;38667;42.872;74.622;2023-02-28T15:52:46;6.60;54.70
52799;DHT22;38667;42.872;74.622;2023-02-28T15:55:19;6.60;54.20
52799;DHT22;38667;42.872;74.622;2023-02-28T15:57:49;6.70;53.40
52799;DHT22;38667;42.872;74.622;2023-02-28T16:00:20;6.70;53.20
52799;DHT22;38667;42.872;74.622;2023-02-28T16:02:47;6.60;53.50
52799;DHT22;38667;42.872;74.622;2023-02-28T16:05:24;6.60;53.60